Greenwald, MN (56335)

12:31 PM CDT on September 04, 2015 (GMT -0500)
Sauk Centre | | Change Station
CLOSE
Current Station
Airport
Location: Sauk Centre,
Elevation: 1240 ft
Nearby Weather Stations

Elev 1240 ft 45.71 °N, 94.93 °W | Updated 17 minutes ago

Clear
Clear
82 °F
Feels Like 87 °F
N
10
Wind Variable Wind from SSE

Today
High -- | Low -- °F
--% Chance of Precip.
Yesterday
High -- | Low -- °F
Precip. -- in
6:44 AM 7:52 PM
Waning Gibbous, 57% visible
Pressure 29.91 in
Visibility 10.0 miles
Clouds Mostly Cloudy 2400 ft
Heat Index 87 °F
Dew Point 72 °F
Humidity 70%
Rainfall 0.00 in
Snow Depth Not available.
UV 4 out of 12
Pollen 9.70 out of 12
Air Quality Not available.
Flu Activity Not available.
METAR KD39 041714Z AUTO 16009KT 10SM BKN024 28/22 A2991 RMK AO2 LTG DSNT W T02800220
Pressure 29.91 in
Visibility 10.0 miles
Clouds Mostly Cloudy 2400 ft
Heat Index 87 °F
Dew Point 72 °F
Humidity 70%
Rainfall 0.00 in
Snow Depth Not available.
UV 4 out of 12
Pollen 9.70 out of 12
Air Quality Not available.
Flu Activity Not available.
METAR KD39 041714Z AUTO 16009KT 10SM BKN024 28/22 A2991 RMK AO2 LTG DSNT W T02800220

10-Day Weather Forecast

×

Almanac

Astronomy

Sep. 04, 2015 Rise Set
Actual Time
Civil Twilight
Nautical Twilight
Astronomical Twilight
Moon
Length of Visible Light
Length of Day
Tomorrow will be .
, % of the Moon is Illuminated

Today's Extremes

State Highs State Lows

Community

WunderPhotos

Upload Photos

1,852,244 photos uploaded!

WunderBlogs® & News

Nearby

Air Quality

  Air Quality AQ Index Pollutant
Not available.

Snow Depth

Station Depth Elevation

Earthquake Activity

City Distance Mag. Time & Date
Minimum magnitude displayed is 2.5.

Coastal Water Temperatures

Place Temperature

Stations

Nearby Weather Stations

Station Location Temp. Windchill Dew Point Humidity Wind Precip. Elev Updated Type